WEATHER/FLIGHT PLANNING

Hattiesburg Radar

 

 

 

 

Weather Links

Flight Planning Links

 

METAR

2015/07/03 11:53 KHBG 031153Z AUTO 19003KT 10SM CLR 25/23 A3006 RMK AO2 SLP175 T02500233 10261 20244 52009

TAF

2015/07/03 12:27 KHBG 031123Z 0312/0412 22005KT P6SM SCT250 FM031500 23012KT P6SM SCT050 BKN250 FM040200 20010KT P6SM VCTS SCT035CB BKN080 FM040600 18003KT P6SM -SHRA OVC035 FM040900 19003KT P6SM OVC025